x

South Hatteras - 225 South Of Cape Hatteras (41002) Wave Buoy

6:50am - Thu 21st Aug 2014 All times are EDT. -4 hours from GMT.

  • Sig Wave height 3.3ft
  • Swell Direction
  • Peak Period 5s
  • Average Period 4s
  • Wind
    13mph, 16mph gusts
  • Sea Temp 81°f
  • Air Temp 81°f
  • Sea Pressure 1018.5mb
  • South Hatteras - 225 South Of Cape Hatteras
  • South Hatteras - 225 South Of Cape Hatteras

More Historic Weather Station data

Upgrade to MSW Pro to gain access to the past 30 days of data for over 8000 Wavebouys and Weather Stations around the globe.

Join Pro

Comparision Forecast

View Surf forecast
   
Thu 08/21 6:50am 3.5ft 5s 4s 13 16 mph 1018.5mb 81f 81f
5:50am 3.5ft 6s 4s 13 18 mph 1017.9mb 81f 81f
4:50am 3.5ft 6s 4s 16 18 mph 1017.6mb 81f 81f
3:50am 3.5ft 6s 4s 16 20 mph 1017.5mb 81f 81f
2:50am 3.5ft 7s 4s 16 18 mph 1018.1mb 81f 81f
1:50am 3.5ft 7s 4s 16 18 mph 1018.2mb 81f 82f
12:50am 3.5ft 7s 5s 13 16 mph 1018.9mb 81f 82f
Wed 08/20 11:50pm 3.5ft 7s 5s 13 16 mph 1018.4mb 81f 81f
10:50pm 3.5ft 6s 5s 11 13 mph 1018.3mb 81f 82f
9:50pm 3.5ft 7s 5s 13 16 mph 1017.9mb 81f 81f
8:50pm 4.5ft 7s 5s 13 16 mph 1017.3mb 81f 81f
7:50pm 4.5ft 7s 5s 11 13 mph 1016.8mb 81f 82f
6:50pm 5ft 7s 5s 13 18 mph 1016.6mb 81f 82f
5:50pm 4.5ft 7s 5s 13 16 mph 1016.6mb 81f 82f
4:50pm 5ft 7s 5s 11 13 mph 1016.5mb 81f 81f
3:50pm 5ft 7s 5s 13 20 mph 1016.9mb 81f 78f
2:50pm 5.5ft 7s 5s 16 18 mph 1017.1mb 81f 79f
1:50pm 5.5ft 7s 5s 13 16 mph 1017.5mb 81f 79f
12:50pm 6ft 7s 5s 13 16 mph 1017.7mb 81f 80f
11:50am 6ft 7s 5s 20 25 mph 1017.3mb 81f 82f
10:50am 5.5ft 6s 5s 20 22 mph 1017.1mb 81f 82f
9:50am 5.5ft 6s 5s 22 25 mph 1016.5mb 81f 82f
7:50am 6ft 6s 5s 22 27 mph 1014.9mb 81f 82f
6:50am 6ft 5s 5s 22 27 mph 1014.4mb 81f 82f
5:50am 5.5ft 7s 5s 25 29 mph 1014.2mb 81f 82f
4:50am 5ft 6s 5s 25 27 mph 1013.8mb 81f 82f
3:50am 5.5ft 6s 5s 22 27 mph 1013.4mb 81f 82f
2:50am 5ft 6s 5s 22 27 mph 1013.6mb 81f 82f
1:50am 5ft 7s 5s 20 27 mph 1013.9mb 81f 82f
12:50am 5ft 7s 5s 22 27 mph 1014.3mb 81f 82f
Tue 08/19 11:50pm 5ft 7s 5s 20 25 mph 1014.6mb 81f 82f
10:50pm  -   -   -  20 25 mph 1014.6mb 81f 82f
9:50pm 5ft 6s 5s 22 25 mph 1014.5mb 81f 82f
8:50pm 5ft 8s 5s 20 22 mph 1013.8mb 82f 82f
7:50pm 5ft 7s 5s 16 20 mph 1013.5mb 82f 82f
6:50pm 5ft 7s 5s 16 18 mph 1013.4mb 82f 82f
5:50pm 5ft 8s 5s 16 20 mph 1013.2mb 82f 82f
4:50pm 5ft 7s 5s 16 20 mph 1013.6mb 82f 82f
3:50pm 5ft 7s 5s 18 25 mph 1013.4mb 81f 82f
2:50pm 5ft 6s 5s 20 25 mph 1013.5mb 81f 82f
1:50pm 5ft 7s 5s 20 25 mph 1014.1mb 81f 82f
12:50pm 5ft 7s 5s 18 22 mph 1014.2mb 81f 81f
11:50am 5ft 7s 5s 20 25 mph 1014.6mb 81f 80f
10:50am 4.5ft 7s 5s 22 27 mph 1014.5mb 81f 81f
9:50am 4.5ft 6s 5s 20 22 mph 1014.3mb 81f 80f
8:50am 4.5ft 6s 5s 22 27 mph 1013.8mb 81f 80f
7:50am 4ft 6s 5s 18 20 mph 1013.6mb 81f 78f
6:50am 4.5ft 6s 5s 18 22 mph 1013.6mb 81f 77f
5:50am 4.5ft 6s 4s 13 16 mph 1013.4mb 81f 76f
4:50am 4.5ft 6s 4s 20 22 mph 1012.6mb 81f 82f
3:50am 4.5ft 6s 4s 22 25 mph 1012.7mb 81f 82f
2:50am 4.5ft 6s 4s 20 25 mph 1013mb 81f 81f
1:50am 4ft 6s 4s 20 25 mph 1013.3mb 81f 81f
12:50am 3.5ft 5s 4s 18 22 mph 1014mb 82f 82f
Mon 08/18 11:50pm 3.5ft 6s 4s 18 20 mph 1014.6mb 81f 81f
10:50pm 3.5ft 6s 4s 18 20 mph 1014.4mb 81f 81f
9:50pm 3.5ft 5s 4s 16 18 mph 1014.5mb 81f 81f
8:50pm 3.5ft 6s 4s 18 20 mph 1014.4mb 82f 81f
7:50pm 3ft 6s 4s 16 18 mph 1014.4mb 82f 82f
6:50pm 3ft 6s 4s 16 18 mph 1014mb 82f 82f
5:50pm 3ft 6s 4s 16 20 mph 1013.9mb 82f 82f
4:50pm 3ft 5s 4s 13 16 mph 1014mb 82f 82f
3:50pm 3ft 6s 4s 13 16 mph 1014.9mb 82f 82f
2:50pm 2.5ft 6s 5s 16 18 mph 1015.4mb 82f 81f
1:50pm 2.5ft 6s 4s 13 16 mph 1016mb 82f 82f
12:50pm 3ft 6s 4s 13 16 mph 1016.1mb 82f 81f
11:50am 3ft 6s 5s 13 16 mph 1016.4mb 82f 82f
10:50am 3ft 5s 4s 13 16 mph 1016.7mb 81f 81f
9:50am 3ft 5s 4s 13 16 mph 1016.5mb 81f 81f
8:50am 3ft 5s 4s 13 16 mph 1016.6mb 81f 81f
7:50am 3.5ft 5s 4s 16 18 mph 1016.6mb 81f 81f
6:50am 3ft 5s 4s 16 18 mph 1016.4mb 81f 81f
5:50am 2.5ft 5s 4s 16 18 mph 1016.2mb 81f 81f
4:50am 3ft 5s 4s 16 18 mph 1015.7mb 81f 81f
3:50am 3ft 5s 4s 16 18 mph 1015.6mb 81f 81f
2:50am 2.5ft 5s 4s 13 18 mph 1015.7mb 81f 81f
1:50am 2.5ft 5s 4s 13 16 mph 1016.5mb 81f 81f
12:50am 2.5ft 5s 4s 16 18 mph 1016.9mb 81f 81f
Sun 08/17 11:50pm 3ft 5s 4s 16 18 mph 1017.2mb 81f 81f
10:50pm 2.5ft 5s 4s 13 16 mph 1017.5mb 81f 81f
9:50pm 3ft 5s 4s 13 18 mph 1017.6mb 81f 81f
8:50pm 2.5ft 5s 4s 16 18 mph 1017.4mb 81f 81f
7:50pm 2.5ft 5s 4s 13 18 mph 1016.7mb 81f 81f
6:50pm 3ft 5s 4s 13 16 mph 1016.5mb 81f 82f
5:50pm 3ft 5s 4s 16 18 mph 1016.3mb 82f 81f
4:50pm 3ft 5s 4s 13 16 mph 1016.9mb 82f 82f
3:50pm 3ft 5s 4s 16 18 mph 1017.2mb 82f 81f
2:50pm 3ft 6s 4s 18 22 mph 1017.6mb 82f 81f
1:50pm 3ft 5s 4s 13 18 mph 1018.4mb 82f 82f
12:50pm 3.5ft 6s 4s 13 16 mph 1018.5mb 81f 81f